createdAt,value
2017-11-30T00:00:14.561Z,995.2
2017-11-30T00:01:16.162Z,995.1
2017-11-30T00:02:19.092Z,995.1
2017-11-30T00:03:20.659Z,995.1
2017-11-30T00:04:22.284Z,995.1
2017-11-30T00:05:24.794Z,995.1
2017-11-30T00:06:26.624Z,995.1
2017-11-30T00:07:28.963Z,995.1
2017-11-30T00:08:31.037Z,995.1
2017-11-30T00:09:32.651Z,995.1
2017-11-30T00:10:34.827Z,995.1
2017-11-30T00:11:36.439Z,995.1
2017-11-30T00:12:39.738Z,995.1
2017-11-30T00:13:41.947Z,995.1
2017-11-30T00:14:44.802Z,995.1
2017-11-30T00:15:46.948Z,995.1
2017-11-30T00:16:48.550Z,995.1
2017-11-30T00:17:50.946Z,995.0
2017-11-30T00:18:53.294Z,995.0
2017-11-30T00:19:55.054Z,995.0
2017-11-30T00:20:57.743Z,995.0
2017-11-30T00:22:00.263Z,995.0
2017-11-30T00:23:01.885Z,995.0
2017-11-30T00:24:04.406Z,995.0
2017-11-30T00:25:06.070Z,995.0
2017-11-30T00:26:09.132Z,995.0
2017-11-30T00:27:11.195Z,995.0
2017-11-30T00:28:13.164Z,995.0
2017-11-30T00:29:14.770Z,995.0
2017-11-30T00:30:16.714Z,995.0
2017-11-30T00:31:19.543Z,995.0
2017-11-30T00:32:23.051Z,995.0
2017-11-30T00:33:24.623Z,995.0
2017-11-30T00:34:26.238Z,995.0
2017-11-30T00:35:28.427Z,995.0
2017-11-30T00:36:30.045Z,995.0
2017-11-30T00:37:31.667Z,995.0
2017-11-30T00:38:33.269Z,995.0
2017-11-30T00:39:34.873Z,994.9
2017-11-30T00:40:36.482Z,994.9
2017-11-30T00:41:38.101Z,994.9
2017-11-30T00:42:39.716Z,994.9
2017-11-30T00:43:41.594Z,995.0
2017-11-30T00:44:43.195Z,994.9
2017-11-30T00:45:46.293Z,994.9
2017-11-30T00:46:47.901Z,994.9
2017-11-30T00:47:49.507Z,994.9
2017-11-30T00:48:51.106Z,994.9
2017-11-30T00:49:52.708Z,994.9
2017-11-30T00:50:54.315Z,994.9
2017-11-30T00:51:55.926Z,994.9
2017-11-30T00:52:57.525Z,995.0
2017-11-30T00:53:59.128Z,995.0
2017-11-30T00:55:00.738Z,995.0
2017-11-30T00:56:02.339Z,994.9
2017-11-30T00:57:03.939Z,994.9
2017-11-30T00:58:05.545Z,994.9
2017-11-30T00:59:07.148Z,994.9
2017-11-30T01:00:08.757Z,994.9
2017-11-30T01:01:10.360Z,994.8
2017-11-30T01:02:11.968Z,994.8
2017-11-30T01:03:13.567Z,994.8
2017-11-30T01:04:15.173Z,994.7
2017-11-30T01:05:16.773Z,994.7
2017-11-30T01:06:18.384Z,994.7
2017-11-30T01:07:19.985Z,994.7
2017-11-30T01:08:21.586Z,994.7
2017-11-30T01:09:23.197Z,994.7
2017-11-30T01:10:24.802Z,994.7
2017-11-30T01:11:26.406Z,994.7
2017-11-30T01:12:28.009Z,994.7
2017-11-30T01:13:29.618Z,994.7
2017-11-30T01:14:31.219Z,994.7
2017-11-30T01:15:32.828Z,994.7
2017-11-30T01:16:34.429Z,994.7
2017-11-30T01:17:36.036Z,994.6
2017-11-30T01:18:37.640Z,994.6
2017-11-30T01:19:39.250Z,994.6
2017-11-30T01:20:40.850Z,994.6
2017-11-30T01:21:42.458Z,994.7
2017-11-30T01:22:44.057Z,994.7
2017-11-30T01:23:45.665Z,994.7
2017-11-30T01:24:47.269Z,994.6
2017-11-30T01:25:48.870Z,994.7
2017-11-30T01:26:50.481Z,994.7
2017-11-30T01:27:52.077Z,994.6
2017-11-30T01:28:53.683Z,994.7
2017-11-30T01:29:55.282Z,994.7
2017-11-30T01:30:56.891Z,994.7
2017-11-30T01:31:58.497Z,994.7
2017-11-30T01:33:00.104Z,994.7
2017-11-30T01:34:01.704Z,994.7
2017-11-30T01:35:03.307Z,994.7
2017-11-30T01:36:04.913Z,994.7
2017-11-30T01:37:06.520Z,994.7
2017-11-30T01:38:08.119Z,994.6
2017-11-30T01:39:09.720Z,994.6
2017-11-30T01:40:11.328Z,994.6
2017-11-30T01:41:12.928Z,994.6
2017-11-30T01:42:14.550Z,994.6
2017-11-30T01:43:16.151Z,994.7
2017-11-30T01:44:17.759Z,994.6
2017-11-30T01:45:19.376Z,994.6
2017-11-30T01:46:20.972Z,994.6
2017-11-30T01:47:22.568Z,994.6
2017-11-30T01:48:24.176Z,994.6
2017-11-30T01:49:25.785Z,994.6
2017-11-30T01:50:27.380Z,994.6
2017-11-30T01:51:28.985Z,994.6
2017-11-30T01:52:30.597Z,994.6
2017-11-30T01:53:32.209Z,994.6
2017-11-30T01:54:33.800Z,994.6
2017-11-30T01:55:35.401Z,994.7
2017-11-30T01:56:37.009Z,994.6
2017-11-30T01:57:38.620Z,994.7
2017-11-30T01:58:40.217Z,994.6
2017-11-30T01:59:41.830Z,994.6
2017-11-30T02:00:43.430Z,994.6
2017-11-30T02:01:45.031Z,994.6
2017-11-30T02:02:46.634Z,994.6
2017-11-30T02:03:48.237Z,994.6
2017-11-30T02:04:49.851Z,994.5
2017-11-30T02:05:51.454Z,994.5
2017-11-30T02:06:53.058Z,994.5
2017-11-30T02:07:54.661Z,994.5
2017-11-30T02:08:56.261Z,994.5
2017-11-30T02:09:57.866Z,994.5
2017-11-30T02:10:59.468Z,994.5
2017-11-30T02:12:01.078Z,994.5
2017-11-30T02:13:02.682Z,994.5
2017-11-30T02:14:05.999Z,994.5
2017-11-30T02:15:07.592Z,994.5
2017-11-30T02:16:09.194Z,994.5
2017-11-30T02:17:10.803Z,994.4
2017-11-30T02:18:12.411Z,994.5
2017-11-30T02:19:14.010Z,994.4
2017-11-30T02:20:15.614Z,994.4
2017-11-30T02:21:17.224Z,994.4
2017-11-30T02:22:18.828Z,994.4
2017-11-30T02:23:20.429Z,994.4
2017-11-30T02:24:22.036Z,994.4
2017-11-30T02:25:23.639Z,994.4
2017-11-30T02:26:25.248Z,994.4
2017-11-30T02:27:26.858Z,994.4
2017-11-30T02:28:28.459Z,994.3
2017-11-30T02:29:30.057Z,994.4
2017-11-30T02:30:31.664Z,994.4
2017-11-30T02:31:33.263Z,994.3
2017-11-30T02:32:34.873Z,994.3
2017-11-30T02:33:36.475Z,994.3
2017-11-30T02:34:38.088Z,994.3
2017-11-30T02:35:39.682Z,994.3
2017-11-30T02:36:41.285Z,994.4
2017-11-30T02:37:42.884Z,994.4
2017-11-30T02:38:44.480Z,994.4
2017-11-30T02:39:46.087Z,994.4
2017-11-30T02:40:47.690Z,994.4
2017-11-30T02:41:49.297Z,994.4
2017-11-30T02:42:50.892Z,994.4
2017-11-30T02:43:52.492Z,994.4
2017-11-30T02:44:54.089Z,994.4
2017-11-30T02:45:55.693Z,994.4
2017-11-30T02:46:57.291Z,994.4
2017-11-30T02:47:58.897Z,994.4
2017-11-30T02:49:00.494Z,994.3
2017-11-30T02:50:02.102Z,994.4
2017-11-30T02:51:03.697Z,994.3
2017-11-30T02:52:05.301Z,994.4
2017-11-30T02:53:06.895Z,994.4
2017-11-30T02:54:08.498Z,994.4
2017-11-30T02:55:10.106Z,994.4
2017-11-30T02:56:11.706Z,994.4
2017-11-30T02:57:13.306Z,994.4
2017-11-30T02:58:14.904Z,994.4
2017-11-30T02:59:16.501Z,994.4
2017-11-30T03:00:18.103Z,994.4
2017-11-30T03:01:19.704Z,994.3
2017-11-30T03:02:21.303Z,994.3
2017-11-30T03:03:22.909Z,994.3
2017-11-30T03:04:24.508Z,994.2
2017-11-30T03:05:26.115Z,994.3
2017-11-30T03:06:27.705Z,994.3
2017-11-30T03:07:29.309Z,994.3
2017-11-30T03:08:30.906Z,994.3
2017-11-30T03:09:32.513Z,994.2
2017-11-30T03:10:34.118Z,994.2
2017-11-30T03:11:35.722Z,994.2
2017-11-30T03:12:37.315Z,994.2
2017-11-30T03:13:38.917Z,994.2
2017-11-30T03:14:40.512Z,994.1
2017-11-30T03:15:42.113Z,994.1
2017-11-30T03:16:43.712Z,994.1
2017-11-30T03:17:45.314Z,994.1
2017-11-30T03:18:46.917Z,994.1
2017-11-30T03:19:48.509Z,994.1
2017-11-30T03:20:50.117Z,994.1
2017-11-30T03:21:51.709Z,994.1
2017-11-30T03:22:53.317Z,994.1
2017-11-30T03:23:54.914Z,994.1
2017-11-30T03:24:56.521Z,994.0
2017-11-30T03:25:58.119Z,994.1
2017-11-30T03:26:59.722Z,994.0
2017-11-30T03:28:01.323Z,994.0
2017-11-30T03:29:02.925Z,994.0
2017-11-30T03:30:04.536Z,993.9
2017-11-30T03:31:06.133Z,994.0
2017-11-30T03:32:07.730Z,993.9
2017-11-30T03:33:09.333Z,993.9
2017-11-30T03:34:10.927Z,993.9
2017-11-30T03:35:12.529Z,993.9
2017-11-30T03:36:14.133Z,993.9
2017-11-30T03:37:15.729Z,993.9
2017-11-30T03:38:17.328Z,993.9
2017-11-30T03:39:18.933Z,993.9
2017-11-30T03:40:20.538Z,993.9
2017-11-30T03:41:22.139Z,993.9
2017-11-30T03:42:23.742Z,993.9
2017-11-30T03:43:25.343Z,993.9
2017-11-30T03:44:26.949Z,993.9
2017-11-30T03:45:28.549Z,993.9
2017-11-30T03:46:30.181Z,993.8
2017-11-30T03:47:31.759Z,993.9
2017-11-30T03:48:33.358Z,993.9
2017-11-30T03:49:34.961Z,993.9
2017-11-30T03:50:36.561Z,993.9
2017-11-30T03:51:38.160Z,993.9
2017-11-30T03:52:39.767Z,993.9
2017-11-30T03:53:41.370Z,993.9
2017-11-30T03:54:42.972Z,993.9
2017-11-30T03:55:44.575Z,993.9
2017-11-30T03:56:46.174Z,993.9
2017-11-30T03:57:47.776Z,994.0
2017-11-30T03:58:49.377Z,994.0
2017-11-30T03:59:51.015Z,993.9
2017-11-30T04:00:52.586Z,993.9
2017-11-30T04:01:54.184Z,993.9
2017-11-30T04:02:55.786Z,993.9
2017-11-30T04:03:57.388Z,993.9
2017-11-30T04:04:58.991Z,993.9
2017-11-30T04:06:00.599Z,993.9
2017-11-30T04:07:02.474Z,993.9
2017-11-30T04:08:04.076Z,993.9
2017-11-30T04:09:05.679Z,993.9
2017-11-30T04:10:07.273Z,993.9
2017-11-30T04:11:08.870Z,993.9
2017-11-30T04:12:10.476Z,993.9
2017-11-30T04:13:12.081Z,993.9
2017-11-30T04:14:13.678Z,993.9
2017-11-30T04:15:15.278Z,993.9
2017-11-30T04:16:16.887Z,993.9
2017-11-30T04:17:18.481Z,993.9
2017-11-30T04:18:20.081Z,993.8
2017-11-30T04:19:21.681Z,993.8
2017-11-30T04:20:23.281Z,993.8
2017-11-30T04:21:24.885Z,993.8
2017-11-30T04:22:26.489Z,993.8
2017-11-30T04:23:28.081Z,993.8
2017-11-30T04:24:29.689Z,993.8
2017-11-30T04:25:31.289Z,993.7
2017-11-30T04:26:32.888Z,993.7
2017-11-30T04:27:34.493Z,993.7
2017-11-30T04:28:36.089Z,993.7
2017-11-30T04:29:37.700Z,993.7
2017-11-30T04:30:39.296Z,993.7
2017-11-30T04:31:40.902Z,993.7
2017-11-30T04:32:42.498Z,993.7
2017-11-30T04:33:44.104Z,993.7
2017-11-30T04:34:45.698Z,993.7
2017-11-30T04:35:47.300Z,993.6
2017-11-30T04:36:48.902Z,993.6
2017-11-30T04:37:50.507Z,993.7
2017-11-30T04:38:52.107Z,993.6
2017-11-30T04:39:53.702Z,993.6
2017-11-30T04:40:55.306Z,993.6
2017-11-30T04:41:56.903Z,993.7
2017-11-30T04:42:58.513Z,993.7
2017-11-30T04:44:00.113Z,993.6
2017-11-30T04:45:01.722Z,993.6
2017-11-30T04:46:03.313Z,993.7
2017-11-30T04:47:04.918Z,993.6
2017-11-30T04:48:06.516Z,993.6
2017-11-30T04:49:08.123Z,993.6
2017-11-30T04:50:09.719Z,993.6
2017-11-30T04:51:11.327Z,993.6
2017-11-30T04:52:12.932Z,993.6
2017-11-30T04:53:14.537Z,993.6
2017-11-30T04:54:16.129Z,993.6
2017-11-30T04:55:17.730Z,993.6
2017-11-30T04:56:19.338Z,993.6
2017-11-30T04:57:20.937Z,993.6
2017-11-30T04:58:22.543Z,993.6
2017-11-30T04:59:24.144Z,993.6
2017-11-30T05:00:25.741Z,993.6
2017-11-30T05:01:27.345Z,993.6
2017-11-30T05:02:28.949Z,993.6
2017-11-30T05:03:30.547Z,993.6
2017-11-30T05:04:32.151Z,993.6
2017-11-30T05:05:33.754Z,993.6
2017-11-30T05:06:35.355Z,993.6
2017-11-30T05:07:36.954Z,993.6
2017-11-30T05:08:38.564Z,993.6
2017-11-30T05:09:40.159Z,993.5
2017-11-30T05:10:41.769Z,993.5
2017-11-30T05:11:43.368Z,993.5
2017-11-30T05:12:44.975Z,993.5
2017-11-30T05:13:46.577Z,993.6
2017-11-30T05:14:48.181Z,993.5
2017-11-30T05:15:49.778Z,993.5
2017-11-30T05:16:51.383Z,993.5
2017-11-30T05:17:52.984Z,993.5
2017-11-30T05:18:54.588Z,993.5
2017-11-30T05:19:56.193Z,993.5
2017-11-30T05:20:57.797Z,993.5
2017-11-30T05:21:59.395Z,993.5
2017-11-30T05:23:00.995Z,993.5
2017-11-30T05:24:02.599Z,993.5
2017-11-30T05:25:04.203Z,993.5
2017-11-30T05:26:05.800Z,993.5
2017-11-30T05:27:07.401Z,993.5
2017-11-30T05:28:09.003Z,993.5
2017-11-30T05:29:10.597Z,993.5
2017-11-30T05:30:12.203Z,993.4
2017-11-30T05:31:13.799Z,993.5
2017-11-30T05:32:15.406Z,993.4
2017-11-30T05:33:17.006Z,993.5
2017-11-30T05:34:18.611Z,993.4
2017-11-30T05:35:20.209Z,993.4
2017-11-30T05:36:21.813Z,993.4
2017-11-30T05:37:23.411Z,993.4
2017-11-30T05:38:25.014Z,993.3
2017-11-30T05:39:26.612Z,993.4
2017-11-30T05:40:28.218Z,993.3
2017-11-30T05:41:29.825Z,993.4
2017-11-30T05:42:31.425Z,993.4
2017-11-30T05:43:33.025Z,993.4
2017-11-30T05:44:34.629Z,993.4
2017-11-30T05:45:36.230Z,993.4
2017-11-30T05:46:37.825Z,993.4
2017-11-30T05:47:39.425Z,993.4
2017-11-30T05:48:41.031Z,993.3
2017-11-30T05:49:42.650Z,993.4
2017-11-30T05:50:44.233Z,993.3
2017-11-30T05:51:45.829Z,993.3
2017-11-30T05:52:47.434Z,993.4
2017-11-30T05:53:49.037Z,993.3
2017-11-30T05:54:50.636Z,993.3
2017-11-30T05:55:52.243Z,993.3
2017-11-30T05:56:53.855Z,993.3
2017-11-30T05:57:55.440Z,993.3
2017-11-30T05:58:57.047Z,993.3
2017-11-30T05:59:58.646Z,993.3
2017-11-30T06:01:00.245Z,993.3
2017-11-30T06:02:01.848Z,993.3
2017-11-30T06:03:03.452Z,993.3
2017-11-30T06:04:05.055Z,993.3
2017-11-30T06:05:06.650Z,993.3
2017-11-30T06:06:08.248Z,993.3
2017-11-30T06:07:09.852Z,993.3
2017-11-30T06:08:11.457Z,993.3
2017-11-30T06:09:13.054Z,993.3
2017-11-30T06:10:14.655Z,993.3
2017-11-30T06:11:16.260Z,993.3
2017-11-30T06:12:17.864Z,993.3
2017-11-30T06:13:19.459Z,993.3
2017-11-30T06:14:21.066Z,993.3
2017-11-30T06:15:22.663Z,993.4
2017-11-30T06:16:24.284Z,993.4
2017-11-30T06:17:25.870Z,993.3
2017-11-30T06:18:27.477Z,993.3
2017-11-30T06:19:29.074Z,993.3
2017-11-30T06:20:30.677Z,993.3
2017-11-30T06:21:32.279Z,993.3
2017-11-30T06:22:33.879Z,993.3
2017-11-30T06:23:35.478Z,993.3
2017-11-30T06:24:37.077Z,993.3
2017-11-30T06:25:38.687Z,993.3
2017-11-30T06:26:40.289Z,993.3
2017-11-30T06:27:41.883Z,993.3
2017-11-30T06:28:43.483Z,993.3
2017-11-30T06:29:45.088Z,993.3
2017-11-30T06:30:46.696Z,993.3
2017-11-30T06:31:48.297Z,993.3
2017-11-30T06:32:49.892Z,993.3
2017-11-30T06:33:51.497Z,993.3
2017-11-30T06:34:53.096Z,993.3
2017-11-30T06:35:54.701Z,993.3
2017-11-30T06:36:56.306Z,993.3
2017-11-30T06:37:57.905Z,993.3
2017-11-30T06:38:59.512Z,993.2
2017-11-30T06:40:01.113Z,993.2
2017-11-30T06:41:02.718Z,993.2
2017-11-30T06:42:04.314Z,993.2
2017-11-30T06:43:05.923Z,993.2
2017-11-30T06:44:07.519Z,993.2
2017-11-30T06:45:09.120Z,993.3
2017-11-30T06:46:10.728Z,993.3
2017-11-30T06:47:12.328Z,993.2
2017-11-30T06:48:13.929Z,993.3
2017-11-30T06:49:15.528Z,993.3
2017-11-30T06:50:17.129Z,993.3
2017-11-30T06:51:18.734Z,993.3
2017-11-30T06:52:20.330Z,993.3
2017-11-30T06:53:21.932Z,993.3
2017-11-30T06:54:23.539Z,993.3
2017-11-30T06:55:25.136Z,993.3
2017-11-30T06:56:26.758Z,993.3
2017-11-30T06:57:28.342Z,993.2
2017-11-30T06:58:29.946Z,993.2
2017-11-30T06:59:31.546Z,993.2
2017-11-30T07:00:33.153Z,993.2
2017-11-30T07:01:34.762Z,993.2
2017-11-30T07:02:36.360Z,993.3
2017-11-30T07:03:37.961Z,993.3
2017-11-30T07:04:39.582Z,993.3
2017-11-30T07:05:41.170Z,993.3
2017-11-30T07:06:42.768Z,993.3
2017-11-30T07:07:44.373Z,993.3
2017-11-30T07:08:45.979Z,993.3
2017-11-30T07:09:47.585Z,993.3
2017-11-30T07:10:49.195Z,993.3
2017-11-30T07:11:50.788Z,993.4
2017-11-30T07:12:52.386Z,993.3
2017-11-30T07:13:53.991Z,993.4
2017-11-30T07:14:55.596Z,993.4
2017-11-30T07:15:57.202Z,993.4
2017-11-30T07:16:58.798Z,993.4
2017-11-30T07:18:00.404Z,993.4
2017-11-30T07:19:02.002Z,993.4
2017-11-30T07:20:03.605Z,993.4
2017-11-30T07:21:05.211Z,993.3
2017-11-30T07:22:06.816Z,993.4
2017-11-30T07:23:08.415Z,993.4
2017-11-30T07:24:10.018Z,993.4
2017-11-30T07:25:11.622Z,993.3
2017-11-30T07:26:13.232Z,993.4
2017-11-30T07:27:14.829Z,993.4
2017-11-30T07:28:16.432Z,993.4
2017-11-30T07:29:18.041Z,993.4
2017-11-30T07:30:19.647Z,993.4
2017-11-30T07:31:21.247Z,993.4
2017-11-30T07:32:22.848Z,993.4
2017-11-30T07:33:24.455Z,993.4
2017-11-30T07:34:26.055Z,993.4
2017-11-30T07:35:27.669Z,993.4
2017-11-30T07:36:29.265Z,993.4
2017-11-30T07:37:30.876Z,993.4
2017-11-30T07:38:32.475Z,993.4
2017-11-30T07:39:34.083Z,993.4
2017-11-30T07:40:35.684Z,993.4
2017-11-30T07:41:37.294Z,993.4
2017-11-30T07:42:38.895Z,993.4
2017-11-30T07:43:40.506Z,993.4
2017-11-30T07:44:42.107Z,993.4
2017-11-30T07:45:43.712Z,993.5
2017-11-30T07:46:45.851Z,993.4
2017-11-30T07:47:47.466Z,993.4
2017-11-30T07:48:49.075Z,993.4
2017-11-30T07:49:50.676Z,993.4
2017-11-30T07:50:52.284Z,993.4
2017-11-30T07:51:53.888Z,993.4
2017-11-30T07:52:55.495Z,993.4
2017-11-30T07:53:57.095Z,993.4
2017-11-30T07:54:58.704Z,993.4
2017-11-30T07:56:00.305Z,993.4
2017-11-30T07:57:01.915Z,993.4
2017-11-30T07:58:03.516Z,993.4
2017-11-30T07:59:05.127Z,993.4
2017-11-30T08:00:06.723Z,993.3
2017-11-30T08:01:08.331Z,993.4
2017-11-30T08:02:09.931Z,993.4
2017-11-30T08:03:11.538Z,993.4
2017-11-30T08:04:13.141Z,993.4
2017-11-30T08:05:14.751Z,993.4
2017-11-30T08:06:16.363Z,993.4
2017-11-30T08:07:17.964Z,993.4
2017-11-30T08:08:19.562Z,993.4
2017-11-30T08:09:21.164Z,993.4
2017-11-30T08:10:22.774Z,993.4
2017-11-30T08:11:24.394Z,993.4
2017-11-30T08:12:25.985Z,993.4
2017-11-30T08:13:27.589Z,993.4
2017-11-30T08:14:29.214Z,993.4
2017-11-30T08:15:30.809Z,993.4
2017-11-30T08:16:32.408Z,993.3
2017-11-30T08:17:34.016Z,993.4
2017-11-30T08:18:35.623Z,993.4
2017-11-30T08:19:37.230Z,993.3
2017-11-30T08:20:38.831Z,993.4
2017-11-30T08:21:40.437Z,993.3
2017-11-30T08:22:42.046Z,993.4
2017-11-30T08:23:43.647Z,993.4
2017-11-30T08:24:45.256Z,993.4
2017-11-30T08:25:46.863Z,993.4
2017-11-30T08:26:48.465Z,993.4
2017-11-30T08:27:50.069Z,993.4
2017-11-30T08:28:51.678Z,993.4
2017-11-30T08:29:53.279Z,993.4
2017-11-30T08:30:54.888Z,993.4
2017-11-30T08:31:56.497Z,993.4
2017-11-30T08:32:58.099Z,993.3
2017-11-30T08:33:59.709Z,993.3
2017-11-30T08:35:01.319Z,993.3
2017-11-30T08:36:02.925Z,993.4
2017-11-30T08:37:04.526Z,993.3
2017-11-30T08:38:06.128Z,993.3
2017-11-30T08:39:07.737Z,993.3
2017-11-30T08:40:09.345Z,993.4
2017-11-30T08:41:10.950Z,993.4
2017-11-30T08:42:12.557Z,993.4
2017-11-30T08:43:14.170Z,993.3
2017-11-30T08:44:15.776Z,993.3
2017-11-30T08:45:17.379Z,993.3
2017-11-30T08:46:18.991Z,993.3
2017-11-30T08:47:20.595Z,993.3
2017-11-30T08:48:22.204Z,993.3
2017-11-30T08:49:23.815Z,993.3
2017-11-30T08:50:25.417Z,993.3
2017-11-30T08:51:27.028Z,993.3
2017-11-30T08:52:28.631Z,993.3
2017-11-30T08:53:30.257Z,993.3
2017-11-30T08:54:31.844Z,993.3
2017-11-30T08:55:33.459Z,993.3
2017-11-30T08:56:35.071Z,993.3
2017-11-30T08:57:36.668Z,993.3
2017-11-30T08:58:38.280Z,993.3
2017-11-30T08:59:39.881Z,993.3
2017-11-30T09:00:41.491Z,993.3
2017-11-30T09:01:43.094Z,993.3
2017-11-30T09:02:44.701Z,993.3
2017-11-30T09:03:46.313Z,993.3
2017-11-30T09:04:47.921Z,993.3
2017-11-30T09:05:49.533Z,993.3
2017-11-30T09:06:51.142Z,993.3
2017-11-30T09:07:52.746Z,993.3
2017-11-30T09:08:54.616Z,993.3
2017-11-30T09:10:02.293Z,993.3
2017-11-30T09:11:05.785Z,993.3
2017-11-30T09:12:07.416Z,993.3
2017-11-30T09:13:09.003Z,993.3
2017-11-30T09:14:10.613Z,993.2
2017-11-30T09:15:13.241Z,993.3
2017-11-30T09:16:16.954Z,993.2
2017-11-30T09:17:18.688Z,993.2
2017-11-30T09:18:20.569Z,993.2
2017-11-30T09:19:22.344Z,993.2
2017-11-30T09:20:24.011Z,993.2
2017-11-30T09:21:26.242Z,993.3
2017-11-30T09:22:27.863Z,993.2
2017-11-30T09:23:29.472Z,993.2
2017-11-30T09:24:31.085Z,993.3
2017-11-30T09:25:32.696Z,993.3
2017-11-30T09:26:34.296Z,993.3
2017-11-30T09:27:35.903Z,993.3
2017-11-30T09:28:37.514Z,993.3
2017-11-30T09:29:39.115Z,993.2
2017-11-30T09:30:40.727Z,993.2
2017-11-30T09:31:42.329Z,993.2
2017-11-30T09:32:43.938Z,993.3
2017-11-30T09:33:45.544Z,993.2
2017-11-30T09:34:47.236Z,993.3
2017-11-30T09:35:48.917Z,993.2
2017-11-30T09:36:54.798Z,993.2
2017-11-30T09:37:56.410Z,993.3
2017-11-30T09:38:58.020Z,993.3
2017-11-30T09:39:59.629Z,993.2
2017-11-30T09:41:01.248Z,993.2
2017-11-30T09:42:02.855Z,993.3
2017-11-30T09:43:04.465Z,993.2
2017-11-30T09:44:06.160Z,993.2
2017-11-30T09:45:07.760Z,993.2
2017-11-30T09:46:09.372Z,993.2
2017-11-30T09:47:10.983Z,993.2
2017-11-30T09:48:12.591Z,993.2
2017-11-30T09:49:14.200Z,993.2
2017-11-30T09:50:15.966Z,993.2
2017-11-30T09:51:17.571Z,993.2
2017-11-30T09:52:19.221Z,993.2
2017-11-30T09:53:20.832Z,993.2
2017-11-30T09:54:22.433Z,993.2
2017-11-30T09:55:24.042Z,993.1
2017-11-30T09:56:25.643Z,993.2
2017-11-30T09:57:27.253Z,993.1
2017-11-30T09:58:28.857Z,993.1
2017-11-30T09:59:30.507Z,993.1
2017-11-30T10:00:32.136Z,993.1
2017-11-30T10:01:33.753Z,993.1
2017-11-30T10:02:35.381Z,993.1
2017-11-30T10:03:36.952Z,993.0
2017-11-30T10:04:38.554Z,993.1
2017-11-30T10:05:40.166Z,993.1
2017-11-30T10:06:41.828Z,993.1
2017-11-30T10:07:43.440Z,993.0
2017-11-30T10:08:45.050Z,993.1
2017-11-30T10:09:46.654Z,993.1
2017-11-30T10:10:48.294Z,993.1
2017-11-30T10:11:49.897Z,993.1
2017-11-30T10:12:51.508Z,993.0
2017-11-30T10:13:53.114Z,993.0
2017-11-30T10:14:54.726Z,993.0
2017-11-30T10:15:56.329Z,993.0
2017-11-30T10:16:57.940Z,993.0
2017-11-30T10:17:59.542Z,993.0
2017-11-30T10:19:01.151Z,993.0
2017-11-30T10:20:02.766Z,992.9
2017-11-30T10:21:04.367Z,993.0
2017-11-30T10:22:05.979Z,992.9
2017-11-30T10:23:07.592Z,992.9
2017-11-30T10:24:09.194Z,992.9
2017-11-30T10:25:12.457Z,992.9
2017-11-30T10:26:14.992Z,992.9
2017-11-30T10:27:18.951Z,992.9
2017-11-30T10:28:20.989Z,992.9
2017-11-30T10:29:26.484Z,992.9
2017-11-30T10:30:28.057Z,992.9
2017-11-30T10:31:30.569Z,992.9
2017-11-30T10:32:32.939Z,992.9
2017-11-30T10:33:35.747Z,992.9
2017-11-30T10:34:40.380Z,992.8
2017-11-30T10:35:44.671Z,992.8
2017-11-30T10:36:46.906Z,992.9
2017-11-30T10:37:48.891Z,992.9
2017-11-30T10:38:50.780Z,992.8
2017-11-30T10:39:55.736Z,992.8
2017-11-30T10:40:57.633Z,992.8
2017-11-30T10:41:59.542Z,992.8
2017-11-30T10:43:01.340Z,992.8
2017-11-30T10:44:03.268Z,992.8
2017-11-30T10:45:04.875Z,992.8
2017-11-30T10:46:06.484Z,992.7
2017-11-30T10:47:08.086Z,992.8
2017-11-30T10:48:09.691Z,992.8
2017-11-30T10:49:11.302Z,992.7
2017-11-30T10:50:13.527Z,992.7
2017-11-30T10:51:15.131Z,992.7
2017-11-30T10:52:16.740Z,992.7
2017-11-30T10:53:18.340Z,992.7
2017-11-30T10:54:19.952Z,992.7
2017-11-30T10:55:21.559Z,992.7
2017-11-30T10:56:23.162Z,992.6
2017-11-30T10:57:24.778Z,992.6
2017-11-30T10:58:26.382Z,992.6
2017-11-30T10:59:27.992Z,992.6
2017-11-30T11:00:29.594Z,992.6
2017-11-30T11:01:31.240Z,992.6
2017-11-30T11:02:32.809Z,992.6
2017-11-30T11:03:34.445Z,992.6
2017-11-30T11:04:36.051Z,992.6
2017-11-30T11:05:37.662Z,992.6
2017-11-30T11:06:39.267Z,992.6
2017-11-30T11:07:40.878Z,992.6
2017-11-30T11:08:42.485Z,992.5
2017-11-30T11:09:44.094Z,992.6
2017-11-30T11:10:45.706Z,992.6
2017-11-30T11:11:47.310Z,992.6
2017-11-30T11:12:48.921Z,992.6
2017-11-30T11:13:50.528Z,992.6
2017-11-30T11:14:52.130Z,992.5
2017-11-30T11:15:53.739Z,992.5
2017-11-30T11:16:55.350Z,992.5
2017-11-30T11:17:56.954Z,992.5
2017-11-30T11:18:58.564Z,992.5
2017-11-30T11:20:00.169Z,992.5
2017-11-30T11:21:01.785Z,992.5
2017-11-30T11:22:03.386Z,992.5
2017-11-30T11:23:04.998Z,992.5
2017-11-30T11:24:06.602Z,992.5
2017-11-30T11:25:08.213Z,992.5
2017-11-30T11:26:09.813Z,992.4
2017-11-30T11:27:11.422Z,992.4
2017-11-30T11:28:13.035Z,992.5
2017-11-30T11:29:14.637Z,992.5
2017-11-30T11:30:16.249Z,992.5
2017-11-30T11:31:17.859Z,992.5
2017-11-30T11:32:19.467Z,992.4
2017-11-30T11:33:21.077Z,992.5
2017-11-30T11:34:22.687Z,992.4
2017-11-30T11:35:24.298Z,992.5
2017-11-30T11:36:25.900Z,992.5
2017-11-30T11:37:27.505Z,992.5
2017-11-30T11:38:29.117Z,992.4
2017-11-30T11:39:30.726Z,992.4
2017-11-30T11:40:32.331Z,992.4
2017-11-30T11:41:33.944Z,992.4
2017-11-30T11:42:35.555Z,992.4
2017-11-30T11:43:37.167Z,992.4
2017-11-30T11:44:38.770Z,992.4
2017-11-30T11:45:40.379Z,992.4
2017-11-30T11:46:41.994Z,992.4
2017-11-30T11:47:43.601Z,992.4
2017-11-30T11:48:45.215Z,992.4
2017-11-30T11:49:46.828Z,992.4
2017-11-30T11:50:48.431Z,992.4
2017-11-30T11:51:50.043Z,992.4
2017-11-30T11:52:51.646Z,992.4
2017-11-30T11:53:53.254Z,992.4
2017-11-30T11:54:54.859Z,992.4
2017-11-30T11:55:56.470Z,992.4
2017-11-30T11:56:58.077Z,992.4
2017-11-30T11:57:59.681Z,992.4
2017-11-30T11:59:01.291Z,992.4
2017-11-30T12:00:03.529Z,992.4
2017-11-30T12:01:05.902Z,992.4
2017-11-30T12:02:07.503Z,992.4
2017-11-30T12:03:09.116Z,992.4
2017-11-30T12:04:10.724Z,992.4
2017-11-30T12:05:12.323Z,992.4
2017-11-30T12:06:13.936Z,992.4
2017-11-30T12:07:15.531Z,992.4
2017-11-30T12:08:17.135Z,992.4
2017-11-30T12:09:18.745Z,992.4
2017-11-30T12:10:20.352Z,992.4
2017-11-30T12:11:21.958Z,992.4
2017-11-30T12:12:23.559Z,992.4
2017-11-30T12:13:25.169Z,992.4
2017-11-30T12:14:26.772Z,992.4
2017-11-30T12:15:28.388Z,992.4
2017-11-30T12:16:29.992Z,992.3
2017-11-30T12:17:31.594Z,992.4
2017-11-30T12:18:33.225Z,992.4
2017-11-30T12:19:34.811Z,992.4
2017-11-30T12:20:36.412Z,992.3
2017-11-30T12:21:38.015Z,992.3
2017-11-30T12:22:39.622Z,992.3
2017-11-30T12:23:41.226Z,992.4
2017-11-30T12:24:42.831Z,992.4
2017-11-30T12:25:44.444Z,992.3
2017-11-30T12:26:46.053Z,992.4
2017-11-30T12:27:47.656Z,992.4
2017-11-30T12:28:49.259Z,992.4
2017-11-30T12:29:50.869Z,992.3
2017-11-30T12:30:52.477Z,992.4
2017-11-30T12:31:54.080Z,992.4
2017-11-30T12:32:55.697Z,992.3
2017-11-30T12:33:57.302Z,992.4
2017-11-30T12:34:58.914Z,992.4
2017-11-30T12:36:00.517Z,992.3
2017-11-30T12:37:02.128Z,992.3
2017-11-30T12:38:03.740Z,992.3
2017-11-30T12:39:05.339Z,992.3
2017-11-30T12:40:06.952Z,992.3
2017-11-30T12:41:08.551Z,992.3
2017-11-30T12:42:10.162Z,992.3
2017-11-30T12:43:11.762Z,992.3
2017-11-30T12:44:13.373Z,992.3
2017-11-30T12:45:14.975Z,992.3
2017-11-30T12:46:16.585Z,992.3
2017-11-30T12:47:18.196Z,992.3
2017-11-30T12:48:19.797Z,992.3
2017-11-30T12:49:21.408Z,992.3
2017-11-30T12:50:23.014Z,992.3
2017-11-30T12:51:24.617Z,992.3
2017-11-30T12:52:26.226Z,992.3
2017-11-30T12:53:27.833Z,992.2
2017-11-30T12:54:29.436Z,992.3
2017-11-30T12:55:31.051Z,992.3
2017-11-30T12:56:32.650Z,992.2
2017-11-30T12:57:34.260Z,992.2
2017-11-30T12:58:35.869Z,992.2
2017-11-30T12:59:37.485Z,992.2
2017-11-30T13:00:39.094Z,992.2
2017-11-30T13:01:40.706Z,992.2
2017-11-30T13:02:42.304Z,992.2
2017-11-30T13:03:43.917Z,992.2
2017-11-30T13:04:45.522Z,992.2
2017-11-30T13:05:47.129Z,992.2
2017-11-30T13:06:48.743Z,992.2
2017-11-30T13:07:50.354Z,992.2
2017-11-30T13:08:51.956Z,992.2
2017-11-30T13:09:53.558Z,992.2
2017-11-30T13:10:55.168Z,992.2
2017-11-30T13:11:56.776Z,992.2
2017-11-30T13:12:58.381Z,992.1
2017-11-30T13:13:59.988Z,992.1